createdAt,value
2023-05-09T00:00:02.098Z,3.27
2023-05-09T00:02:30.360Z,2.80
2023-05-09T00:04:57.948Z,3.30
2023-05-09T00:07:25.587Z,3.00
2023-05-09T00:09:53.444Z,3.10
2023-05-09T00:12:20.877Z,3.30
2023-05-09T00:14:51.786Z,3.00
2023-05-09T00:17:19.481Z,3.00
2023-05-09T00:19:47.849Z,3.17
2023-05-09T00:22:16.140Z,2.97
2023-05-09T00:24:43.285Z,3.60
2023-05-09T00:27:11.141Z,3.47
2023-05-09T00:29:39.021Z,3.03
2023-05-09T00:32:06.751Z,3.60
2023-05-09T00:34:34.758Z,3.30
2023-05-09T00:37:02.303Z,3.23
2023-05-09T00:39:30.281Z,3.17
2023-05-09T00:41:57.745Z,2.80
2023-05-09T00:44:25.378Z,3.00
2023-05-09T00:46:52.887Z,2.33
2023-05-09T00:49:20.623Z,2.97
2023-05-09T00:51:48.036Z,2.50
2023-05-09T00:54:19.506Z,2.53
2023-05-09T00:56:47.478Z,2.60
2023-05-09T00:59:16.969Z,2.63
2023-05-09T01:01:45.606Z,2.90
2023-05-09T01:04:13.033Z,2.37
2023-05-09T01:07:06.634Z,2.67
2023-05-09T01:10:01.158Z,3.00
2023-05-09T01:12:48.239Z,2.60
2023-05-09T01:18:04.290Z,3.20
2023-05-09T01:20:39.429Z,3.17
2023-05-09T01:23:12.827Z,3.27
2023-05-09T01:25:42.821Z,3.00
2023-05-09T01:28:35.764Z,2.90
2023-05-09T01:31:03.702Z,3.30
2023-05-09T01:33:31.493Z,2.80
2023-05-09T01:36:04.014Z,3.07
2023-05-09T01:38:37.053Z,3.50
2023-05-09T01:41:07.478Z,3.50
2023-05-09T01:43:35.477Z,3.37
2023-05-09T01:46:03.480Z,3.67
2023-05-09T01:48:30.940Z,3.13
2023-05-09T01:50:58.726Z,2.67
2023-05-09T01:53:25.834Z,3.27
2023-05-09T01:55:53.902Z,3.33
2023-05-09T01:58:20.541Z,3.20
2023-05-09T02:00:48.387Z,3.10
2023-05-09T02:03:15.961Z,3.20
2023-05-09T02:05:43.959Z,3.00
2023-05-09T02:08:14.480Z,3.40
2023-05-09T02:10:42.692Z,3.23
2023-05-09T02:13:10.322Z,3.30
2023-05-09T02:15:38.218Z,3.20
2023-05-09T02:18:06.800Z,3.03
2023-05-09T02:20:36.058Z,3.17
2023-05-09T02:23:04.062Z,3.53
2023-05-09T02:25:32.324Z,3.20
2023-05-09T02:27:59.603Z,2.93
2023-05-09T02:30:27.135Z,3.17
2023-05-09T02:33:02.601Z,3.00
2023-05-09T02:35:30.983Z,3.40
2023-05-09T02:37:58.240Z,3.40
2023-05-09T02:40:25.953Z,3.70
2023-05-09T02:42:53.913Z,3.30
2023-05-09T02:45:22.110Z,3.10
2023-05-09T02:47:50.453Z,3.07
2023-05-09T02:50:17.984Z,3.10
2023-05-09T02:52:45.961Z,3.20
2023-05-09T02:55:13.742Z,3.37
2023-05-09T02:57:41.318Z,3.33
2023-05-09T03:00:09.822Z,3.23
2023-05-09T03:02:38.410Z,3.30
2023-05-09T03:05:07.822Z,3.27
2023-05-09T03:07:35.434Z,3.57
2023-05-09T03:10:02.751Z,3.50
2023-05-09T03:12:30.365Z,3.80
2023-05-09T03:14:57.758Z,3.60
2023-05-09T03:17:25.570Z,3.10
2023-05-09T03:19:53.424Z,3.53
2023-05-09T03:22:21.205Z,3.40
2023-05-09T03:24:48.684Z,3.13
2023-05-09T03:27:16.757Z,3.50
2023-05-09T03:29:44.643Z,3.47
2023-05-09T03:32:13.943Z,3.03
2023-05-09T03:34:43.187Z,3.40
2023-05-09T03:37:11.018Z,3.13
2023-05-09T03:39:38.908Z,3.40
2023-05-09T03:42:06.999Z,3.23
2023-05-09T03:44:34.820Z,3.17
2023-05-09T03:47:03.109Z,3.60
2023-05-09T03:49:30.749Z,3.47
2023-05-09T03:51:58.115Z,3.60
2023-05-09T03:54:25.761Z,3.17
2023-05-09T03:56:53.986Z,3.47
2023-05-09T03:59:21.594Z,3.30
2023-05-09T04:01:49.416Z,3.90
2023-05-09T04:04:17.056Z,3.80
2023-05-09T04:06:45.310Z,3.90
2023-05-09T04:09:12.649Z,3.90
2023-05-09T04:11:40.657Z,4.00
2023-05-09T04:14:08.299Z,3.80
2023-05-09T04:16:36.936Z,4.17
2023-05-09T04:19:07.540Z,4.13
2023-05-09T04:21:35.240Z,4.00
2023-05-09T04:24:03.020Z,4.40
2023-05-09T04:26:31.556Z,4.40
2023-05-09T04:28:59.378Z,3.93
2023-05-09T04:31:27.135Z,4.17
2023-05-09T04:33:54.664Z,3.83
2023-05-09T04:36:22.183Z,4.20
2023-05-09T04:38:49.767Z,3.70
2023-05-09T04:41:17.234Z,3.77
2023-05-09T04:43:45.311Z,3.97
2023-05-09T04:46:13.282Z,3.67
2023-05-09T04:48:41.537Z,3.80
2023-05-09T04:51:09.485Z,3.60
2023-05-09T04:53:37.548Z,3.87
2023-05-09T04:56:05.331Z,3.93
2023-05-09T04:58:34.491Z,3.73
2023-05-09T05:01:02.364Z,4.30
2023-05-09T05:03:30.145Z,4.00
2023-05-09T05:05:57.588Z,4.17
2023-05-09T05:08:25.411Z,4.43
2023-05-09T05:10:53.265Z,4.50
2023-05-09T05:13:21.595Z,4.30
2023-05-09T05:15:49.776Z,4.90
2023-05-09T05:18:17.321Z,4.13
2023-05-09T05:20:44.696Z,3.97
2023-05-09T05:23:12.291Z,4.00
2023-05-09T05:25:40.697Z,3.80
2023-05-09T05:28:08.255Z,4.20
2023-05-09T05:30:56.185Z,3.93
2023-05-09T05:33:23.995Z,4.07
2023-05-09T05:35:51.825Z,4.63
2023-05-09T05:38:19.733Z,4.40
2023-05-09T05:40:47.768Z,4.30
2023-05-09T05:43:15.607Z,4.37
2023-05-09T05:45:43.619Z,4.70
2023-05-09T05:48:11.556Z,4.27
2023-05-09T05:50:39.420Z,4.03
2023-05-09T05:53:07.053Z,4.33
2023-05-09T05:55:34.522Z,4.23
2023-05-09T05:58:02.459Z,4.30
2023-05-09T06:00:30.223Z,5.17
2023-05-09T06:02:58.284Z,3.73
2023-05-09T06:05:27.227Z,4.20
2023-05-09T06:07:55.169Z,4.77
2023-05-09T06:10:23.631Z,3.97
2023-05-09T06:12:51.522Z,4.10
2023-05-09T06:15:19.356Z,5.07
2023-05-09T06:17:47.371Z,5.07
2023-05-09T06:20:15.277Z,4.40
2023-05-09T06:22:42.757Z,4.40
2023-05-09T06:25:10.963Z,4.40
2023-05-09T06:27:38.931Z,4.43
2023-05-09T06:30:23.863Z,4.47
2023-05-09T06:32:53.987Z,4.30
2023-05-09T06:35:21.984Z,4.20
2023-05-09T06:37:50.130Z,4.10
2023-05-09T06:40:18.167Z,4.40
2023-05-09T06:42:46.167Z,3.93
2023-05-09T06:45:13.872Z,3.43
2023-05-09T06:47:41.875Z,3.87
2023-05-09T06:50:11.450Z,3.90
2023-05-09T06:52:39.348Z,4.30
2023-05-09T06:55:10.720Z,3.63
2023-05-09T06:57:38.700Z,3.70
2023-05-09T07:00:09.501Z,4.27
2023-05-09T07:02:37.177Z,3.97
2023-05-09T07:05:06.220Z,3.37
2023-05-09T07:07:34.145Z,3.77
2023-05-09T07:10:11.425Z,4.37
2023-05-09T07:12:40.158Z,3.90
2023-05-09T07:15:11.261Z,3.73
2023-05-09T07:17:39.227Z,4.10
2023-05-09T07:20:09.324Z,3.97
2023-05-09T07:22:41.105Z,4.20
2023-05-09T07:25:10.273Z,4.00
2023-05-09T07:27:38.153Z,3.83
2023-05-09T07:30:09.159Z,4.20
2023-05-09T07:32:36.653Z,3.63
2023-05-09T07:35:04.862Z,3.37
2023-05-09T07:37:33.222Z,3.60
2023-05-09T07:40:01.000Z,3.10
2023-05-09T07:42:30.332Z,3.20
2023-05-09T07:44:59.119Z,3.80
2023-05-09T07:47:26.879Z,3.67
2023-05-09T07:49:54.380Z,3.27
2023-05-09T07:52:21.869Z,3.83
2023-05-09T07:54:49.412Z,3.47
2023-05-09T07:57:17.267Z,3.73
2023-05-09T07:59:45.257Z,3.70
2023-05-09T08:02:12.724Z,3.57
2023-05-09T08:04:41.724Z,4.40
2023-05-09T08:07:09.816Z,3.70
2023-05-09T08:09:37.620Z,3.47
2023-05-09T08:12:06.866Z,3.63
2023-05-09T08:14:34.621Z,3.50
2023-05-09T08:17:05.608Z,3.90
2023-05-09T08:19:33.158Z,3.50
2023-05-09T08:22:00.895Z,3.58
2023-05-09T08:24:28.470Z,3.65
2023-05-09T08:26:56.267Z,3.53
2023-05-09T08:29:23.888Z,3.15
2023-05-09T08:31:51.653Z,3.17
2023-05-09T08:34:19.617Z,3.25
2023-05-09T08:36:47.129Z,3.50
2023-05-09T08:39:14.968Z,3.30
2023-05-09T08:41:42.565Z,2.92
2023-05-09T08:44:09.713Z,3.15
2023-05-09T08:46:37.710Z,3.20
2023-05-09T08:49:07.179Z,3.63
2023-05-09T08:51:35.275Z,3.38
2023-05-09T08:54:03.421Z,3.42
2023-05-09T08:56:31.864Z,3.60
2023-05-09T08:58:59.788Z,3.75
2023-05-09T09:01:27.361Z,3.90
2023-05-09T09:03:55.516Z,3.22
2023-05-09T09:06:23.035Z,3.75
2023-05-09T09:08:51.026Z,3.70
2023-05-09T09:11:18.851Z,4.05
2023-05-09T09:13:46.167Z,4.00
2023-05-09T09:16:17.006Z,3.65
2023-05-09T09:18:44.024Z,3.83
2023-05-09T09:21:14.112Z,4.13
2023-05-09T09:23:41.641Z,3.78
2023-05-09T09:26:09.099Z,4.78
2023-05-09T09:28:36.954Z,4.25
2023-05-09T09:31:04.153Z,3.95
2023-05-09T09:33:32.032Z,4.32
2023-05-09T09:35:59.822Z,3.83
2023-05-09T09:38:27.537Z,3.70
2023-05-09T09:40:56.618Z,3.67
2023-05-09T09:43:30.901Z,4.53
2023-05-09T09:46:01.608Z,3.60
2023-05-09T09:48:33.671Z,4.38
2023-05-09T09:51:46.204Z,3.80
2023-05-09T09:54:13.489Z,4.13
2023-05-09T09:56:51.132Z,4.03
2023-05-09T09:59:20.481Z,3.47
2023-05-09T10:02:07.021Z,3.50
2023-05-09T10:04:37.269Z,4.00
2023-05-09T10:07:06.335Z,3.65
2023-05-09T10:09:34.738Z,3.75
2023-05-09T10:12:25.462Z,4.05
2023-05-09T10:14:52.919Z,3.15
2023-05-09T10:17:20.945Z,3.92
2023-05-09T10:19:47.910Z,3.60
2023-05-09T10:22:16.523Z,3.85
2023-05-09T10:25:00.164Z,4.30
2023-05-09T10:27:28.217Z,4.32
2023-05-09T10:30:04.875Z,3.75
2023-05-09T10:33:09.697Z,4.13
2023-05-09T10:35:37.481Z,4.05
2023-05-09T10:38:05.030Z,3.90
2023-05-09T10:40:32.013Z,3.33
2023-05-09T10:43:01.832Z,3.63
2023-05-09T10:45:29.804Z,3.50
2023-05-09T10:47:57.108Z,3.40
2023-05-09T10:50:24.882Z,3.63
2023-05-09T10:53:17.234Z,3.45
2023-05-09T10:55:59.116Z,3.78
2023-05-09T10:58:33.759Z,4.20
2023-05-09T11:01:01.758Z,4.15
2023-05-09T11:03:31.027Z,4.40
2023-05-09T11:05:58.980Z,4.50
2023-05-09T11:08:33.334Z,3.72
2023-05-09T11:11:10.205Z,4.30
2023-05-09T11:13:40.659Z,3.90
2023-05-09T11:16:11.471Z,3.92
2023-05-09T11:18:52.012Z,4.70
2023-05-09T11:21:20.499Z,4.82
2023-05-09T11:23:48.276Z,4.18
2023-05-09T11:26:16.661Z,4.78
2023-05-09T11:28:43.599Z,4.63
2023-05-09T11:31:13.220Z,4.65
2023-05-09T11:33:40.764Z,4.60
2023-05-09T11:36:27.868Z,4.20
2023-05-09T11:39:09.143Z,4.57
2023-05-09T11:41:43.777Z,4.13
2023-05-09T11:44:37.353Z,4.30
2023-05-09T11:47:04.724Z,4.05
2023-05-09T11:49:32.301Z,3.85
2023-05-09T11:52:01.133Z,4.38
2023-05-09T11:54:29.089Z,3.80
2023-05-09T11:56:56.704Z,3.22
2023-05-09T11:59:24.741Z,3.75
2023-05-09T12:01:51.920Z,4.55
2023-05-09T12:04:19.919Z,3.75
2023-05-09T12:06:50.557Z,4.20
2023-05-09T12:09:20.037Z,4.03
2023-05-09T12:11:50.872Z,3.65
2023-05-09T12:14:50.778Z,3.78
2023-05-09T12:17:18.615Z,3.30
2023-05-09T12:19:46.508Z,3.10
2023-05-09T12:22:14.161Z,3.45
2023-05-09T12:24:41.972Z,3.50
2023-05-09T12:27:09.707Z,3.88
2023-05-09T12:29:37.109Z,3.80
2023-05-09T12:32:06.155Z,4.00
2023-05-09T12:34:34.171Z,3.40
2023-05-09T12:37:05.798Z,3.50
2023-05-09T12:39:33.661Z,3.13
2023-05-09T12:42:02.223Z,3.17
2023-05-09T12:44:30.379Z,3.33
2023-05-09T12:47:23.613Z,2.90
2023-05-09T12:49:51.190Z,2.67
2023-05-09T12:52:21.869Z,2.60
2023-05-09T12:54:49.691Z,2.20
2023-05-09T12:57:30.127Z,1.90
2023-05-09T13:00:02.462Z,1.80
2023-05-09T13:02:34.959Z,2.15
2023-05-09T13:05:11.674Z,2.75
2023-05-09T13:08:05.536Z,2.67
2023-05-09T13:10:33.052Z,2.13
2023-05-09T13:13:00.777Z,2.58
2023-05-09T13:15:29.699Z,2.50
2023-05-09T13:17:57.660Z,2.90
2023-05-09T13:20:25.796Z,2.63
2023-05-09T13:22:53.326Z,2.90
2023-05-09T13:25:21.606Z,2.83
2023-05-09T13:27:49.684Z,3.47
2023-05-09T13:30:20.022Z,3.78
2023-05-09T13:32:47.745Z,3.47
2023-05-09T13:35:16.599Z,3.53
2023-05-09T13:37:44.586Z,3.03
2023-05-09T13:40:14.250Z,4.00
2023-05-09T13:42:42.033Z,3.63
2023-05-09T13:45:12.003Z,4.45
2023-05-09T13:47:40.166Z,5.13
2023-05-09T13:50:10.142Z,4.43
2023-05-09T13:52:38.042Z,3.75
2023-05-09T13:55:07.382Z,4.10
2023-05-09T13:57:35.108Z,3.42
2023-05-09T14:00:03.265Z,4.97
2023-05-09T14:02:31.241Z,3.40
2023-05-09T14:04:59.136Z,3.17
2023-05-09T14:07:26.475Z,3.03
2023-05-09T14:10:04.842Z,3.03
2023-05-09T14:12:39.663Z,3.15
2023-05-09T14:15:11.441Z,3.20
2023-05-09T14:17:39.790Z,3.47
2023-05-09T14:20:10.315Z,3.03
2023-05-09T14:22:37.946Z,2.88
2023-05-09T14:25:06.915Z,2.90
2023-05-09T14:27:37.341Z,2.90
2023-05-09T14:30:05.459Z,2.90
2023-05-09T14:32:33.327Z,3.08
2023-05-09T14:35:01.204Z,2.47
2023-05-09T14:37:29.361Z,2.78
2023-05-09T14:40:05.316Z,2.80
2023-05-09T14:42:33.441Z,2.70
2023-05-09T14:45:01.070Z,2.53
2023-05-09T14:47:28.599Z,2.50
2023-05-09T14:49:56.694Z,2.03
2023-05-09T14:52:24.656Z,2.50
2023-05-09T14:54:52.555Z,2.45
2023-05-09T14:57:20.364Z,2.53
2023-05-09T14:59:48.642Z,2.20
2023-05-09T15:02:16.547Z,2.40
2023-05-09T15:04:44.901Z,2.40
2023-05-09T15:07:32.458Z,2.17
2023-05-09T15:10:00.316Z,1.88
2023-05-09T15:12:28.215Z,2.28
2023-05-09T15:14:58.740Z,1.60
2023-05-09T15:17:26.546Z,1.95
2023-05-09T15:19:54.415Z,2.00
2023-05-09T15:22:22.330Z,1.88
2023-05-09T15:24:50.489Z,1.88
2023-05-09T15:27:18.631Z,2.05
2023-05-09T15:29:46.863Z,2.20
2023-05-09T15:32:14.601Z,1.73
2023-05-09T15:34:42.537Z,2.17
2023-05-09T15:37:10.051Z,2.00
2023-05-09T15:39:42.361Z,1.77
2023-05-09T15:42:12.261Z,2.20
2023-05-09T15:44:47.304Z,1.92
2023-05-09T15:47:14.535Z,2.10
2023-05-09T15:49:42.447Z,2.20
2023-05-09T15:52:10.388Z,2.10
2023-05-09T15:54:37.885Z,1.90
2023-05-09T15:57:05.346Z,2.10
2023-05-09T15:59:33.376Z,2.05
2023-05-09T16:02:01.435Z,1.73
2023-05-09T16:04:29.464Z,2.30
2023-05-09T16:06:59.963Z,2.30
2023-05-09T16:09:28.643Z,2.20
2023-05-09T16:11:56.449Z,2.10
2023-05-09T16:14:24.385Z,2.10
2023-05-09T16:16:55.279Z,2.40
2023-05-09T16:19:22.951Z,2.30
2023-05-09T16:21:51.385Z,2.75
2023-05-09T16:24:18.942Z,2.85
2023-05-09T16:26:46.745Z,2.17
2023-05-09T16:29:14.715Z,2.20
2023-05-09T16:31:44.923Z,2.20
2023-05-09T16:34:13.009Z,1.98
2023-05-09T16:36:40.477Z,1.92
2023-05-09T16:39:08.722Z,1.88
2023-05-09T16:41:36.624Z,1.67
2023-05-09T16:44:04.679Z,1.65
2023-05-09T16:46:32.603Z,1.90
2023-05-09T16:49:00.523Z,1.95
2023-05-09T16:51:28.454Z,1.65
2023-05-09T16:53:56.216Z,1.95
2023-05-09T16:56:24.037Z,1.65
2023-05-09T16:58:51.815Z,2.05
2023-05-09T17:01:19.771Z,2.08
2023-05-09T17:03:48.334Z,2.05
2023-05-09T17:06:16.067Z,1.67
2023-05-09T17:08:43.779Z,1.60
2023-05-09T17:11:11.783Z,1.75
2023-05-09T17:13:39.316Z,1.92
2023-05-09T17:16:07.189Z,1.83
2023-05-09T17:18:38.046Z,1.90
2023-05-09T17:21:06.827Z,1.90
2023-05-09T17:23:34.767Z,1.87
2023-05-09T17:26:02.699Z,1.90
2023-05-09T17:28:30.691Z,2.07
2023-05-09T17:30:59.172Z,1.67
2023-05-09T17:36:16.318Z,1.85
2023-05-09T17:38:43.939Z,1.80
2023-05-09T17:41:11.755Z,2.17
2023-05-09T17:43:39.671Z,1.90
2023-05-09T17:46:08.168Z,1.60
2023-05-09T17:48:36.150Z,1.60
2023-05-09T17:51:05.047Z,2.07
2023-05-09T17:53:32.963Z,2.50
2023-05-09T17:56:00.406Z,1.70
2023-05-09T17:58:28.250Z,2.40
2023-05-09T18:00:55.956Z,2.20
2023-05-09T18:03:23.648Z,2.37
2023-05-09T18:05:51.178Z,2.17
2023-05-09T18:08:18.775Z,2.07
2023-05-09T18:10:47.068Z,1.73
2023-05-09T18:13:14.459Z,2.60
2023-05-09T18:15:42.434Z,2.50
2023-05-09T18:18:12.859Z,2.10
2023-05-09T18:20:42.838Z,3.07
2023-05-09T18:23:11.871Z,2.43
2023-05-09T18:25:39.972Z,2.33
2023-05-09T18:28:11.020Z,1.83
2023-05-09T18:30:39.441Z,1.80
2023-05-09T18:33:07.194Z,2.00
2023-05-09T18:35:35.095Z,2.27
2023-05-09T18:38:02.495Z,2.30
2023-05-09T18:40:30.477Z,2.03
2023-05-09T18:42:58.268Z,2.63
2023-05-09T18:45:25.887Z,2.37
2023-05-09T18:47:54.138Z,2.20
2023-05-09T18:50:21.870Z,2.47
2023-05-09T18:52:50.257Z,2.20
2023-05-09T18:55:19.881Z,2.60
2023-05-09T18:57:47.589Z,3.33
2023-05-09T19:00:16.150Z,2.17
2023-05-09T19:02:43.805Z,2.43
2023-05-09T19:05:11.593Z,2.07
2023-05-09T19:07:39.427Z,2.60
2023-05-09T19:10:10.458Z,2.30
2023-05-09T19:12:38.257Z,2.00
2023-05-09T19:15:08.572Z,2.30
2023-05-09T19:17:36.521Z,2.63
2023-05-09T19:20:05.937Z,2.90
2023-05-09T19:22:33.556Z,2.70
2023-05-09T19:25:01.018Z,2.90
2023-05-09T19:27:29.274Z,3.00
2023-05-09T19:29:57.123Z,3.27
2023-05-09T19:32:25.027Z,2.90
2023-05-09T19:34:52.521Z,3.00
2023-05-09T19:37:20.457Z,3.20
2023-05-09T19:39:48.372Z,3.10
2023-05-09T19:42:16.293Z,3.10
2023-05-09T19:44:43.820Z,3.73
2023-05-09T19:47:11.736Z,3.70
2023-05-09T19:49:40.845Z,3.80
2023-05-09T19:52:08.266Z,3.10
2023-05-09T19:54:36.238Z,3.40
2023-05-09T19:57:06.438Z,3.60
2023-05-09T19:59:34.121Z,4.43
2023-05-09T20:02:01.983Z,4.70
2023-05-09T20:04:34.856Z,4.70
2023-05-09T20:07:03.701Z,4.50
2023-05-09T20:09:32.906Z,3.87
2023-05-09T20:12:02.061Z,3.37
2023-05-09T20:14:29.900Z,3.10
2023-05-09T20:16:57.720Z,3.10
2023-05-09T20:19:25.962Z,3.20
2023-05-09T20:21:53.740Z,3.00
2023-05-09T20:24:21.230Z,3.77
2023-05-09T20:26:48.750Z,3.30
2023-05-09T20:29:16.577Z,4.33
2023-05-09T20:31:44.853Z,4.53
2023-05-09T20:34:16.146Z,4.87
2023-05-09T20:36:44.132Z,3.93
2023-05-09T20:39:13.307Z,4.80
2023-05-09T20:41:40.817Z,4.03
2023-05-09T20:44:09.337Z,4.30
2023-05-09T20:46:36.740Z,4.03
2023-05-09T20:49:04.215Z,4.37
2023-05-09T20:51:32.641Z,4.63
2023-05-09T20:53:59.798Z,4.67
2023-05-09T20:56:28.741Z,4.40
2023-05-09T20:58:56.279Z,4.43
2023-05-09T21:01:23.733Z,3.97
2023-05-09T21:03:51.692Z,4.37
2023-05-09T21:06:19.692Z,4.30
2023-05-09T21:08:47.580Z,4.40
2023-05-09T21:11:15.235Z,4.43
2023-05-09T21:13:42.616Z,3.90
2023-05-09T21:16:10.130Z,4.23
2023-05-09T21:18:38.039Z,4.60
2023-05-09T21:21:08.942Z,3.93
2023-05-09T21:23:36.753Z,4.07
2023-05-09T21:26:04.524Z,4.03
2023-05-09T21:28:32.789Z,3.80
2023-05-09T21:31:01.642Z,3.83
2023-05-09T21:33:29.699Z,3.80
2023-05-09T21:35:58.623Z,3.93
2023-05-09T21:38:26.284Z,4.13
2023-05-09T21:40:53.477Z,4.23
2023-05-09T21:43:21.347Z,3.70
2023-05-09T21:45:49.360Z,4.37
2023-05-09T21:48:21.131Z,4.03
2023-05-09T21:50:48.975Z,4.03
2023-05-09T21:53:16.846Z,3.70
2023-05-09T21:55:44.021Z,4.00
2023-05-09T21:58:11.847Z,4.00
2023-05-09T22:00:40.089Z,3.63
2023-05-09T22:03:08.251Z,4.03
2023-05-09T22:05:35.972Z,4.27
2023-05-09T22:08:04.273Z,3.97
2023-05-09T22:10:32.462Z,3.87
2023-05-09T22:13:00.392Z,4.13
2023-05-09T22:15:28.383Z,4.20
2023-05-09T22:17:56.093Z,3.77
2023-05-09T22:20:24.292Z,3.83
2023-05-09T22:22:52.173Z,4.13
2023-05-09T22:25:20.285Z,3.50
2023-05-09T22:27:47.822Z,3.70
2023-05-09T22:30:16.160Z,3.60
2023-05-09T22:32:44.329Z,3.73
2023-05-09T22:35:11.998Z,3.70
2023-05-09T22:37:39.643Z,3.40
2023-05-09T22:40:10.826Z,3.70
2023-05-09T22:42:41.252Z,3.07
2023-05-09T22:45:11.371Z,3.33
2023-05-09T22:47:39.364Z,3.50
2023-05-09T22:50:10.492Z,3.30
2023-05-09T22:52:38.187Z,3.20
2023-05-09T22:55:08.463Z,3.33
2023-05-09T22:57:36.069Z,3.10
2023-05-09T23:00:07.094Z,3.60
2023-05-09T23:02:35.093Z,3.20
2023-05-09T23:05:03.197Z,3.27
2023-05-09T23:07:31.196Z,3.73
2023-05-09T23:09:59.301Z,3.10
2023-05-09T23:12:27.236Z,3.33
2023-05-09T23:14:55.087Z,3.00
2023-05-09T23:17:23.045Z,3.20
2023-05-09T23:19:50.154Z,2.63
2023-05-09T23:22:17.896Z,3.30
2023-05-09T23:24:45.281Z,3.40
2023-05-09T23:27:19.938Z,3.17
2023-05-09T23:29:48.090Z,3.40
2023-05-09T23:32:16.273Z,3.50
2023-05-09T23:34:44.602Z,3.50
2023-05-09T23:37:12.087Z,3.30
2023-05-09T23:39:39.885Z,3.23
2023-05-09T23:42:08.112Z,3.57
2023-05-09T23:44:36.123Z,3.40
2023-05-09T23:47:04.619Z,3.57
2023-05-09T23:49:32.162Z,3.20
2023-05-09T23:51:59.965Z,2.80
2023-05-09T23:54:33.579Z,2.90
2023-05-09T23:57:01.291Z,3.73
2023-05-09T23:59:29.161Z,3.60
